
Distance (Route):
Temperature : -20.9°C
Humidity : 18.1%
Pressure : 0hPa| Receiver | Frames | First received | Last received |
|---|---|---|---|
| KE7DJD | 41 | 2026-09-05 01:46:26 | 2026-09-05 02:01:34 |
| Receiver | Date | Latitude | Longitude | Direction | Speed | Altitude | Climb | Temperature | Humidity | Pressure | Voltage | Killtimer | Uptime | BKT | XDATA |
|---|---|---|---|---|---|---|---|---|---|---|---|---|---|---|---|
| KE7DJD | 2026-09-05 02:01:34 | 45.16534 | -114.86640 | 25° | 122km/h | 6826m | -3.1m/s | -20.9°C | 18.1% | 0hPa | 0V | 07:21:00 | 00:00:00 | 00:00:00 | |
| KE7DJD | 2026-09-05 02:01:13 | 45.15980 | -114.86993 | 29° | 115km/h | 6895m | -3.3m/s | -21.6°C | 18.5% | 0hPa | 0V | 07:21:00 | 00:00:00 | 00:00:00 | |
| KE7DJD | 2026-09-05 02:00:31 | 45.14862 | -114.87881 | 32° | 126km/h | 7040m | -3.7m/s | -22.6°C | 19.8% | 0hPa | 0V | 07:21:00 | 00:00:00 | 00:00:00 | |
| KE7DJD | 2026-09-05 02:00:11 | 45.14304 | -114.88324 | 32° | 122km/h | 7115m | -3.9m/s | -23.0°C | 21.8% | 0hPa | 0V | 07:21:00 | 00:00:00 | 00:00:00 | |
| KE7DJD | 2026-09-05 01:59:50 | 45.13729 | -114.88840 | 33° | 135km/h | 7196m | -4.0m/s | -23.5°C | 24.3% | 0hPa | 0V | 07:22:00 | 00:00:00 | 00:00:00 | |
| KE7DJD | 2026-09-05 01:59:29 | 45.13128 | -114.89407 | 34° | 141km/h | 7276m | -3.7m/s | -24.2°C | 26.0% | 0hPa | 0V | 07:22:00 | 00:00:00 | 00:00:00 | |
| KE7DJD | 2026-09-05 01:59:08 | 45.12504 | -114.90009 | 35° | 146km/h | 7354m | -3.9m/s | -24.6°C | 29.0% | 0hPa | 0V | 07:22:00 | 00:00:00 | 00:00:00 | |
| KE7DJD | 2026-09-05 01:58:48 | 45.11844 | -114.90631 | 31° | 150km/h | 7429m | -3.5m/s | -24.9°C | 32.0% | 0hPa | 0V | 07:23:00 | 00:00:00 | 00:00:00 | |
| KE7DJD | 2026-09-05 01:58:28 | 45.11182 | -114.91206 | 31° | 153km/h | 7497m | -3.4m/s | -25.2°C | 33.9% | 0hPa | 0V | 07:23:00 | 00:00:00 | 00:00:00 | |
| KE7DJD | 2026-09-05 01:58:06 | 45.10512 | -114.91791 | 30° | 153km/h | 7565m | -3.2m/s | -25.5°C | 32.9% | 0hPa | 0V | 07:24:00 | 00:00:00 | 00:00:00 | |
| KE7DJD | 2026-09-05 01:57:46 | 45.09872 | -114.92343 | 32° | 155km/h | 7631m | -3.2m/s | -26.1°C | 34.9% | 0hPa | 0V | 07:24:00 | 00:00:00 | 00:00:00 | |
| KE7DJD | 2026-09-05 01:57:26 | 45.09223 | -114.92883 | 34° | 144km/h | 7695m | -3.4m/s | -26.6°C | 35.9% | 0hPa | 0V | 07:24:00 | 00:00:00 | 00:00:00 | |
| KE7DJD | 2026-09-05 01:57:05 | 45.08542 | -114.93460 | 34° | 146km/h | 7764m | -3.3m/s | -27.1°C | 36.0% | 0hPa | 0V | 07:25:00 | 00:00:00 | 00:00:00 | |
| KE7DJD | 2026-09-05 01:56:44 | 45.07883 | -114.94082 | 35° | 157km/h | 7830m | -3.2m/s | -27.5°C | 35.9% | 0hPa | 0V | 07:25:00 | 00:00:00 | 00:00:00 | |
| KE7DJD | 2026-09-05 01:56:24 | 45.07197 | -114.94647 | 30° | 157km/h | 7893m | -3.2m/s | -27.7°C | 36.5% | 0hPa | 0V | 07:26:00 | 00:00:00 | 00:00:00 | |
| KE7DJD | 2026-09-05 01:56:03 | 45.06461 | -114.95214 | 31° | 159km/h | 7959m | -3.2m/s | -28.0°C | 30.4% | 0hPa | 0V | 07:26:00 | 00:00:00 | 00:00:00 | |
| KE7DJD | 2026-09-05 01:55:42 | 45.05732 | -114.95769 | 29° | 146km/h | 8025m | -3.2m/s | -28.4°C | 28.2% | 0hPa | 0V | 07:26:00 | 00:00:00 | 00:00:00 | |
| KE7DJD | 2026-09-05 01:55:21 | 45.05029 | -114.96316 | 28° | 146km/h | 8091m | -3.1m/s | -28.7°C | 22.7% | 0hPa | 0V | 07:27:00 | 00:00:00 | 00:00:00 | |
| KE7DJD | 2026-09-05 01:55:01 | 45.04379 | -114.96858 | 32° | 146km/h | 8153m | -3.1m/s | -28.9°C | 20.8% | 0hPa | 0V | 07:27:00 | 00:00:00 | 00:00:00 | |
| KE7DJD | 2026-09-05 01:54:41 | 45.03713 | -114.97451 | 34° | 148km/h | 8216m | -3.1m/s | -29.4°C | 20.8% | 0hPa | 0V | 07:27:00 | 00:00:00 | 00:00:00 | |
| KE7DJD | 2026-09-05 01:54:20 | 45.03047 | -114.98022 | 29° | 155km/h | 8279m | -3.1m/s | -29.7°C | 19.0% | 0hPa | 0V | 07:27:00 | 00:00:00 | 00:00:00 | |
| KE7DJD | 2026-09-05 01:54:00 | 45.02361 | -114.98606 | 34° | 159km/h | 8340m | -3.0m/s | -30.3°C | 20.3% | 0hPa | 0V | 07:27:00 | 00:00:00 | 00:00:00 | |
| KE7DJD | 2026-09-05 01:53:39 | 45.01662 | -114.99180 | 32° | 144km/h | 8405m | -3.2m/s | -31.0°C | 22.4% | 0hPa | 0V | 07:28:00 | 00:00:00 | 00:00:00 | |
| KE7DJD | 2026-09-05 01:53:18 | 45.00975 | -114.99806 | 33° | 162km/h | 8470m | -3.1m/s | -31.3°C | 16.4% | 0hPa | 0V | 07:28:00 | 00:00:00 | 00:00:00 | |
| KE7DJD | 2026-09-05 01:52:57 | 45.00274 | -115.00401 | 34° | 150km/h | 8537m | -3.3m/s | -31.8°C | 17.3% | 0hPa | 0V | 07:29:00 | 00:00:00 | 00:00:00 | |
| KE7DJD | 2026-09-05 01:52:37 | 44.99638 | -115.01007 | 34° | 148km/h | 8601m | -3.2m/s | -32.4°C | 17.0% | 0hPa | 0V | 07:29:00 | 00:00:00 | 00:00:00 | |
| KE7DJD | 2026-09-05 01:52:16 | 44.98972 | -115.01653 | 34° | 162km/h | 8670m | -3.3m/s | -32.9°C | 19.4% | 0hPa | 0V | 07:29:00 | 00:00:00 | 00:00:00 | |
| KE7DJD | 2026-09-05 01:51:56 | 44.98277 | -115.02242 | 31° | 157km/h | 8737m | -3.3m/s | -33.3°C | 21.7% | 0hPa | 0V | 07:30:00 | 00:00:00 | 00:00:00 | |
| KE7DJD | 2026-09-05 01:51:35 | 44.97596 | -115.02855 | 36° | 162km/h | 8807m | -3.5m/s | -33.9°C | 39.3% | 0hPa | 0V | 07:30:00 | 00:00:00 | 00:00:00 | |
| KE7DJD | 2026-09-05 01:51:14 | 44.96895 | -115.03447 | 33° | 146km/h | 8878m | -3.3m/s | -34.6°C | 40.4% | 0hPa | 0V | 07:31:00 | 00:00:00 | 00:00:00 | |
| KE7DJD | 2026-09-05 01:50:54 | 44.96255 | -115.04069 | 32° | 155km/h | 8945m | -3.4m/s | -35.0°C | 19.5% | 0hPa | 0V | 07:31:00 | 00:00:00 | 00:00:00 | |
| KE7DJD | 2026-09-05 01:50:33 | 44.95590 | -115.04673 | 37° | 146km/h | 9016m | -3.1m/s | -35.4°C | 15.6% | 0hPa | 0V | 07:31:00 | 00:00:00 | 00:00:00 | |
| KE7DJD | 2026-09-05 01:49:53 | 44.94329 | -115.05937 | 38° | 159km/h | 9147m | -3.2m/s | -36.5°C | 16.1% | 0hPa | 0V | 07:32:00 | 00:00:00 | 00:00:00 | |
| KE7DJD | 2026-09-05 01:49:32 | 44.93637 | -115.06603 | 38° | 150km/h | 9217m | -3.4m/s | -37.0°C | 16.0% | 0hPa | 0V | 07:33:00 | 00:00:00 | 00:00:00 | |
| KE7DJD | 2026-09-05 01:49:11 | 44.92956 | -115.07316 | 33° | 157km/h | 9285m | -3.3m/s | -37.5°C | 27.4% | 0hPa | 0V | 07:33:00 | 00:00:00 | 00:00:00 | |
| KE7DJD | 2026-09-05 01:48:29 | 44.91643 | -115.08687 | 39° | 153km/h | 9424m | -3.5m/s | -38.6°C | 49.6% | 0hPa | 0V | 07:33:00 | 00:00:00 | 00:00:00 | |
| KE7DJD | 2026-09-05 01:48:09 | 44.91004 | -115.09408 | 36° | 170km/h | 9492m | -3.3m/s | -39.0°C | 58.8% | 0hPa | 0V | 07:33:00 | 00:00:00 | 00:00:00 | |
| KE7DJD | 2026-09-05 01:47:48 | 44.90324 | -115.10133 | 40° | 166km/h | 9565m | -3.4m/s | -39.8°C | 63.3% | 0hPa | 0V | 07:34:00 | 00:00:00 | 00:00:00 | |
| KE7DJD | 2026-09-05 01:47:28 | 44.89634 | -115.10847 | 36° | 170km/h | 9636m | -3.5m/s | -40.1°C | 62.4% | 0hPa | 0V | 07:34:00 | 00:00:00 | 00:00:00 | |
| KE7DJD | 2026-09-05 01:47:07 | 44.88909 | -115.11514 | 34° | 157km/h | 9712m | -3.7m/s | -40.7°C | 61.4% | 0hPa | 0V | 07:35:00 | 00:00:00 | 00:00:00 | |
| KE7DJD | 2026-09-05 01:46:26 | 44.87541 | -115.12858 | 35° | 153km/h | 9861m | -3.5m/s | -42.0°C | 66.9% | 0hPa | 0V | 07:35:00 | 00:00:00 | 00:00:00 |